createdAt,value
2017-11-04T00:02:40.081Z,51.10
2017-11-04T00:06:07.253Z,51.10
2017-11-04T00:09:34.709Z,51.20
2017-11-04T00:13:02.114Z,51.20
2017-11-04T00:16:29.563Z,51.20
2017-11-04T00:19:56.438Z,51.10
2017-11-04T00:23:26.103Z,51.00
2017-11-04T00:26:53.748Z,51.00
2017-11-04T00:30:22.748Z,50.90
2017-11-04T00:33:51.088Z,51.00
2017-11-04T00:37:17.691Z,51.00
2017-11-04T00:40:44.240Z,51.00
2017-11-04T00:44:10.795Z,51.00
2017-11-04T00:47:37.775Z,51.00
2017-11-04T00:51:06.110Z,50.90
2017-11-04T00:54:35.271Z,50.90
2017-11-04T00:58:02.680Z,50.80
2017-11-04T01:01:29.848Z,50.80
2017-11-04T01:04:56.898Z,50.80
2017-11-04T01:08:24.351Z,50.90
2017-11-04T01:11:51.297Z,50.80
2017-11-04T01:15:17.775Z,50.80
2017-11-04T01:18:46.207Z,50.90
2017-11-04T01:22:12.933Z,50.80
2017-11-04T01:25:39.606Z,50.80
2017-11-04T01:29:06.722Z,50.80
2017-11-04T01:32:33.348Z,50.80
2017-11-04T01:35:59.814Z,50.70
2017-11-04T01:39:26.271Z,50.70
2017-11-04T01:42:53.117Z,50.80
2017-11-04T01:46:19.540Z,50.80
2017-11-04T01:49:46.339Z,50.70
2017-11-04T01:53:18.591Z,50.70
2017-11-04T01:56:46.155Z,50.70
2017-11-04T02:00:13.676Z,50.70
2017-11-04T02:03:40.033Z,50.60
2017-11-04T02:07:07.299Z,50.70
2017-11-04T02:10:34.951Z,50.70
2017-11-04T02:14:02.339Z,50.60
2017-11-04T02:17:32.607Z,50.60
2017-11-04T02:21:01.522Z,50.60
2017-11-04T02:24:31.484Z,50.60
2017-11-04T02:28:01.525Z,50.60
2017-11-04T02:31:30.470Z,50.60
2017-11-04T02:34:59.856Z,50.70
2017-11-04T02:38:33.762Z,50.60
2017-11-04T02:42:03.839Z,50.50
2017-11-04T02:45:34.505Z,50.60
2017-11-04T02:49:02.692Z,50.60
2017-11-04T02:52:32.615Z,50.50
2017-11-04T02:56:03.625Z,50.60
2017-11-04T02:59:35.306Z,50.50
2017-11-04T03:03:07.115Z,50.60
2017-11-04T03:06:35.771Z,50.50
2017-11-04T03:13:44.112Z,50.50
2017-11-04T03:17:14.748Z,50.50
2017-11-04T03:20:44.559Z,50.50
2017-11-04T03:24:14.738Z,50.40
2017-11-04T03:27:45.776Z,50.40
2017-11-04T03:31:17.860Z,50.40
2017-11-04T03:34:49.573Z,50.40
2017-11-04T03:38:19.005Z,50.40
2017-11-04T03:41:48.118Z,50.40
2017-11-04T03:45:20.715Z,50.40
2017-11-04T03:48:49.873Z,50.30
2017-11-04T03:52:18.199Z,50.40
2017-11-04T03:55:47.882Z,50.40
2017-11-04T03:59:20.172Z,50.50
2017-11-04T04:02:48.478Z,50.40
2017-11-04T04:06:17.468Z,50.30
2017-11-04T04:09:45.215Z,50.40
2017-11-04T04:13:11.852Z,50.40
2017-11-04T04:16:39.102Z,50.40
2017-11-04T04:20:05.274Z,50.50
2017-11-04T04:23:32.072Z,50.30
2017-11-04T04:26:59.001Z,50.20
2017-11-04T04:30:27.179Z,50.30
2017-11-04T04:33:54.923Z,50.30
2017-11-04T04:37:21.618Z,50.40
2017-11-04T04:40:48.172Z,50.40
2017-11-04T04:44:15.895Z,50.40
2017-11-04T04:47:42.681Z,50.30
2017-11-04T04:51:10.156Z,50.30
2017-11-04T04:54:37.294Z,50.30
2017-11-04T04:58:04.403Z,50.30
2017-11-04T05:01:31.699Z,50.50
2017-11-04T05:04:59.842Z,50.30
2017-11-04T05:08:26.629Z,50.30
2017-11-04T05:11:53.439Z,50.30
2017-11-04T05:15:20.499Z,50.30
2017-11-04T05:18:46.950Z,50.20
2017-11-04T05:22:14.875Z,50.30
2017-11-04T05:25:41.941Z,50.30
2017-11-04T05:29:07.910Z,50.30
2017-11-04T05:32:35.410Z,50.30
2017-11-04T05:36:05.987Z,50.30
2017-11-04T05:39:32.867Z,50.20
2017-11-04T05:43:00.367Z,50.30
2017-11-04T05:46:27.162Z,50.30
2017-11-04T05:49:54.261Z,50.20
2017-11-04T05:53:22.531Z,50.10
2017-11-04T05:56:49.225Z,50.10
2017-11-04T06:00:15.805Z,50.10
2017-11-04T06:03:43.620Z,50.70
2017-11-04T06:07:10.687Z,50.10
2017-11-04T06:10:37.391Z,50.10
2017-11-04T06:14:05.069Z,50.10
2017-11-04T06:17:32.668Z,50.10
2017-11-04T06:20:59.299Z,50.00
2017-11-04T06:24:26.246Z,50.00
2017-11-04T06:27:52.822Z,50.00
2017-11-04T06:31:19.232Z,50.00
2017-11-04T06:34:45.779Z,50.00
2017-11-04T06:38:12.947Z,50.10
2017-11-04T06:41:39.941Z,50.00
2017-11-04T06:45:07.239Z,50.00
2017-11-04T06:48:34.042Z,50.00
2017-11-04T06:52:01.314Z,50.10
2017-11-04T06:55:29.345Z,49.80
2017-11-04T06:58:55.916Z,49.30
2017-11-04T07:02:22.711Z,48.40
2017-11-04T07:05:49.223Z,47.50
2017-11-04T07:09:15.961Z,46.80
2017-11-04T07:12:42.648Z,46.30
2017-11-04T07:16:08.950Z,46.00
2017-11-04T07:19:36.202Z,45.60
2017-11-04T07:23:02.646Z,45.20
2017-11-04T07:26:29.223Z,44.90
2017-11-04T07:29:55.735Z,44.80
2017-11-04T07:33:22.195Z,44.40
2017-11-04T07:36:49.665Z,44.20
2017-11-04T07:40:16.408Z,44.10
2017-11-04T07:43:46.368Z,44.20
2017-11-04T07:47:13.745Z,44.20
2017-11-04T07:50:40.007Z,44.30
2017-11-04T07:54:09.810Z,44.40
2017-11-04T07:57:36.870Z,44.40
2017-11-04T08:01:04.709Z,44.60
2017-11-04T08:04:31.359Z,44.60
2017-11-04T08:08:06.186Z,44.60
2017-11-04T08:11:37.456Z,44.90
2017-11-04T08:15:08.550Z,44.90
2017-11-04T08:18:34.999Z,44.40
2017-11-04T08:22:05.936Z,44.10
2017-11-04T08:25:32.337Z,43.70
2017-11-04T08:28:59.323Z,43.10
2017-11-04T08:32:26.649Z,42.70
2017-11-04T08:35:54.054Z,42.30
2017-11-04T08:39:20.814Z,42.30
2017-11-04T08:42:47.965Z,41.90
2017-11-04T08:49:51.782Z,41.40
2017-11-04T08:53:18.846Z,41.40
2017-11-04T08:56:45.397Z,41.30
2017-11-04T09:00:11.851Z,41.50
2017-11-04T09:03:42.758Z,41.40
2017-11-04T09:07:13.306Z,41.50
2017-11-04T09:10:39.531Z,41.60
2017-11-04T09:14:07.339Z,41.70
2017-11-04T09:17:33.880Z,41.80
2017-11-04T09:21:00.510Z,42.10
2017-11-04T09:24:32.934Z,42.20
2017-11-04T09:27:59.556Z,42.20
2017-11-04T09:31:27.355Z,42.50
2017-11-04T09:34:54.407Z,42.40
2017-11-04T09:38:21.971Z,42.40
2017-11-04T09:41:53.115Z,42.40
2017-11-04T09:45:20.082Z,42.30
2017-11-04T09:48:47.469Z,42.30
2017-11-04T09:52:14.848Z,42.30
2017-11-04T09:59:13.700Z,42.20
2017-11-04T10:02:45.178Z,42.20
2017-11-04T10:06:13.603Z,42.20
2017-11-04T10:09:46.658Z,42.10
2017-11-04T10:13:12.782Z,42.40
2017-11-04T10:16:39.645Z,42.20
2017-11-04T10:20:09.638Z,42.00
2017-11-04T10:23:36.246Z,42.20
2017-11-04T10:27:12.588Z,42.10
2017-11-04T10:30:38.607Z,42.20
2017-11-04T10:34:06.731Z,42.30
2017-11-04T10:37:35.096Z,42.40
2017-11-04T10:41:02.491Z,42.40
2017-11-04T10:48:00.196Z,42.70
2017-11-04T10:51:27.000Z,42.60
2017-11-04T10:54:54.986Z,42.70
2017-11-04T10:58:26.432Z,42.70
2017-11-04T11:01:53.666Z,42.50
2017-11-04T11:05:21.643Z,42.50
2017-11-04T11:08:47.595Z,42.50
2017-11-04T11:12:15.408Z,42.60
2017-11-04T11:15:43.413Z,42.60
2017-11-04T11:19:22.840Z,42.40
2017-11-04T11:22:50.891Z,42.60
2017-11-04T11:26:17.713Z,42.60
2017-11-04T11:29:48.978Z,42.10
2017-11-04T11:33:16.186Z,42.10
2017-11-04T11:36:42.412Z,42.30
2017-11-04T11:40:08.387Z,42.40
2017-11-04T11:43:35.857Z,42.30
2017-11-04T11:47:02.857Z,42.60
2017-11-04T11:50:29.694Z,42.80
2017-11-04T11:53:57.156Z,43.00
2017-11-04T11:57:24.562Z,43.40
2017-11-04T12:00:58.898Z,43.50
2017-11-04T12:04:29.426Z,43.70
2017-11-04T12:12:18.773Z,43.90
2017-11-04T12:16:11.206Z,44.10
2017-11-04T12:19:54.535Z,44.40
2017-11-04T12:23:22.085Z,44.60
2017-11-04T12:26:49.200Z,45.10
2017-11-04T12:30:15.765Z,45.20
2017-11-04T12:33:55.397Z,45.50
2017-11-04T12:37:22.094Z,45.70
2017-11-04T12:40:48.633Z,45.90
2017-11-04T12:44:15.604Z,46.20
2017-11-04T12:47:44.699Z,46.50
2017-11-04T12:51:11.478Z,46.70
2017-11-04T12:54:39.245Z,47.00
2017-11-04T12:58:05.301Z,47.00
2017-11-04T13:01:31.854Z,47.10
2017-11-04T13:05:05.842Z,47.20
2017-11-04T13:08:32.676Z,47.30
2017-11-04T13:11:59.583Z,47.30
2017-11-04T13:15:27.284Z,47.40
2017-11-04T13:18:53.955Z,48.10
2017-11-04T13:22:20.990Z,48.20
2017-11-04T13:25:47.889Z,47.80
2017-11-04T13:29:14.540Z,47.60
2017-11-04T13:32:41.329Z,48.70
2017-11-04T13:36:07.276Z,48.20
2017-11-04T13:39:34.057Z,49.00
2017-11-04T13:43:00.561Z,48.40
2017-11-04T13:46:27.875Z,48.50
2017-11-04T13:49:58.534Z,48.60
2017-11-04T13:53:25.306Z,48.70
2017-11-04T13:56:56.313Z,48.70
2017-11-04T14:00:32.226Z,48.70
2017-11-04T14:03:59.168Z,48.80
2017-11-04T14:07:29.601Z,48.80
2017-11-04T14:10:56.083Z,48.80
2017-11-04T14:14:23.351Z,48.80
2017-11-04T14:17:49.315Z,48.80
2017-11-04T14:21:21.171Z,48.80
2017-11-04T14:24:50.677Z,48.70
2017-11-04T14:28:20.589Z,48.70
2017-11-04T14:31:47.164Z,48.60
2017-11-04T14:35:13.826Z,48.60
2017-11-04T14:38:49.394Z,48.60
2017-11-04T14:42:16.032Z,48.80
2017-11-04T14:45:48.955Z,49.00
2017-11-04T14:49:16.309Z,49.20
2017-11-04T14:52:43.815Z,49.30
2017-11-04T14:56:15.198Z,49.30
2017-11-04T14:59:45.182Z,49.50
2017-11-04T15:03:12.919Z,49.50
2017-11-04T15:06:40.830Z,49.50
2017-11-04T15:10:08.185Z,49.60
2017-11-04T15:13:34.764Z,49.70
2017-11-04T15:17:01.936Z,50.20
2017-11-04T15:20:28.497Z,49.80
2017-11-04T15:23:55.151Z,50.40
2017-11-04T15:30:57.624Z,50.00
2017-11-04T15:34:26.073Z,50.00
2017-11-04T15:37:53.002Z,50.00
2017-11-04T15:41:32.878Z,50.10
2017-11-04T15:45:41.411Z,50.20
2017-11-04T15:49:53.581Z,50.30
2017-11-04T15:53:23.357Z,50.50
2017-11-04T15:57:27.747Z,50.60
2017-11-04T16:00:59.377Z,50.70
2017-11-04T16:04:27.101Z,50.80
2017-11-04T16:07:53.359Z,50.90
2017-11-04T16:11:21.325Z,50.90
2017-11-04T16:14:47.973Z,50.50
2017-11-04T16:21:44.483Z,50.00
2017-11-04T16:25:10.577Z,49.50
2017-11-04T16:28:37.753Z,49.30
2017-11-04T16:32:06.805Z,48.70
2017-11-04T16:35:33.822Z,48.00
2017-11-04T16:39:00.275Z,48.00
2017-11-04T16:42:27.375Z,47.40
2017-11-04T16:46:00.127Z,47.10
2017-11-04T16:49:31.592Z,47.10
2017-11-04T16:52:57.748Z,46.60
2017-11-04T16:56:24.779Z,46.30
2017-11-04T17:03:22.195Z,46.20
2017-11-04T17:06:49.164Z,45.70
2017-11-04T17:10:17.419Z,45.50
2017-11-04T17:13:45.030Z,45.60
2017-11-04T17:17:12.277Z,45.60
2017-11-04T17:20:38.860Z,45.30
2017-11-04T17:24:05.522Z,45.20
2017-11-04T17:27:32.449Z,45.40
2017-11-04T17:30:59.189Z,45.50
2017-11-04T17:34:25.783Z,45.60
2017-11-04T17:37:53.240Z,46.10
2017-11-04T17:44:51.492Z,46.30
2017-11-04T17:48:19.074Z,46.50
2017-11-04T17:51:45.589Z,46.60
2017-11-04T17:55:12.493Z,46.80
2017-11-04T17:58:39.698Z,46.90
2017-11-04T18:02:06.111Z,47.00
2017-11-04T18:09:08.915Z,47.40
2017-11-04T18:12:35.702Z,47.40
2017-11-04T18:16:04.716Z,47.70
2017-11-04T18:19:31.467Z,47.70
2017-11-04T18:23:02.219Z,47.60
2017-11-04T18:26:34.121Z,47.50
2017-11-04T18:30:01.626Z,47.50
2017-11-04T18:33:32.606Z,47.60
2017-11-04T18:36:58.884Z,47.60
2017-11-04T18:40:26.318Z,47.80
2017-11-04T18:43:53.464Z,47.70
2017-11-04T18:47:19.450Z,47.80
2017-11-04T18:50:46.741Z,48.00
2017-11-04T18:54:13.891Z,48.10
2017-11-04T18:57:40.994Z,48.20
2017-11-04T19:01:07.741Z,48.30
2017-11-04T19:04:35.783Z,48.60
2017-11-04T19:08:02.494Z,48.50
2017-11-04T19:11:29.196Z,48.70
2017-11-04T19:14:56.568Z,48.80
2017-11-04T19:18:25.129Z,49.10
2017-11-04T19:21:51.751Z,49.10
2017-11-04T19:25:19.645Z,49.30
2017-11-04T19:28:46.756Z,49.50
2017-11-04T19:32:14.288Z,49.90
2017-11-04T19:35:41.973Z,49.90
2017-11-04T19:39:09.193Z,50.00
2017-11-04T19:42:36.104Z,50.00
2017-11-04T19:46:04.065Z,49.70
2017-11-04T19:49:31.031Z,49.70
2017-11-04T19:52:58.514Z,49.60
2017-11-04T19:56:25.761Z,49.60
2017-11-04T19:59:53.620Z,49.30
2017-11-04T20:03:20.175Z,49.10
2017-11-04T20:06:47.039Z,49.00
2017-11-04T20:10:14.503Z,49.00
2017-11-04T20:13:42.027Z,48.60
2017-11-04T20:17:09.323Z,48.60
2017-11-04T20:20:36.703Z,48.40
2017-11-04T20:24:03.492Z,48.40
2017-11-04T20:27:30.664Z,48.40
2017-11-04T20:30:57.717Z,48.40
2017-11-04T20:34:24.117Z,48.40
2017-11-04T20:37:51.033Z,48.50
2017-11-04T20:41:19.699Z,48.40
2017-11-04T20:44:46.484Z,48.50
2017-11-04T20:48:17.795Z,48.60
2017-11-04T20:51:44.425Z,48.90
2017-11-04T20:55:11.145Z,49.00
2017-11-04T20:58:38.404Z,49.20
2017-11-04T21:02:05.032Z,49.40
2017-11-04T21:05:31.601Z,49.50
2017-11-04T21:08:58.515Z,49.30
2017-11-04T21:12:26.724Z,49.70
2017-11-04T21:15:54.232Z,49.50
2017-11-04T21:19:21.435Z,49.40
2017-11-04T21:22:50.130Z,49.00
2017-11-04T21:26:17.083Z,49.00
2017-11-04T21:29:44.123Z,49.00
2017-11-04T21:33:11.296Z,49.00
2017-11-04T21:36:39.624Z,49.10
2017-11-04T21:40:06.275Z,48.90
2017-11-04T21:43:32.404Z,48.90
2017-11-04T21:46:58.994Z,49.00
2017-11-04T21:50:25.809Z,49.30
2017-11-04T21:53:52.041Z,49.20
2017-11-04T21:57:19.913Z,49.30
2017-11-04T22:00:46.946Z,49.50
2017-11-04T22:04:14.068Z,49.60
2017-11-04T22:07:40.791Z,49.70
2017-11-04T22:11:07.675Z,49.90
2017-11-04T22:14:35.829Z,50.20
2017-11-04T22:18:02.902Z,50.20
2017-11-04T22:21:29.567Z,50.20
2017-11-04T22:24:57.080Z,50.20
2017-11-04T22:28:28.069Z,50.40
2017-11-04T22:31:59.688Z,50.40
2017-11-04T22:35:25.688Z,50.40
2017-11-04T22:38:57.034Z,50.50
2017-11-04T22:42:23.730Z,50.60
2017-11-04T22:45:50.558Z,50.70
2017-11-04T22:49:19.527Z,50.80
2017-11-04T22:52:45.752Z,50.70
2017-11-04T22:56:11.723Z,50.90
2017-11-04T22:59:41.214Z,51.00
2017-11-04T23:03:07.786Z,51.00
2017-11-04T23:06:34.519Z,51.00
2017-11-04T23:10:02.103Z,51.00
2017-11-04T23:13:28.717Z,51.10
2017-11-04T23:16:54.693Z,51.20
2017-11-04T23:20:20.703Z,51.20
2017-11-04T23:23:47.199Z,51.30
2017-11-04T23:27:14.095Z,51.30
2017-11-04T23:30:41.847Z,51.30
2017-11-04T23:34:09.744Z,51.40
2017-11-04T23:37:36.794Z,52.00
2017-11-04T23:41:02.755Z,51.50
2017-11-04T23:44:30.123Z,51.50
2017-11-04T23:47:56.782Z,51.50
2017-11-04T23:51:23.785Z,51.50
2017-11-04T23:54:50.795Z,51.50
2017-11-04T23:58:18.227Z,51.50
